createdAt,value
2022-08-14T00:00:45.664Z,2.80
2022-08-14T00:03:29.570Z,2.50
2022-08-14T00:06:00.644Z,3.00
2022-08-14T00:08:43.718Z,3.00
2022-08-14T00:11:14.262Z,2.70
2022-08-14T00:13:52.551Z,2.80
2022-08-14T00:16:41.198Z,2.80
2022-08-14T00:19:18.872Z,3.00
2022-08-14T00:21:51.824Z,2.80
2022-08-14T00:24:28.120Z,2.80
2022-08-14T00:27:02.047Z,2.40
2022-08-14T00:29:33.142Z,3.10
2022-08-14T00:32:52.038Z,2.80
2022-08-14T00:35:01.720Z,3.10
2022-08-14T00:37:31.992Z,2.70
2022-08-14T00:40:01.742Z,3.00
2022-08-14T00:42:55.484Z,2.30
2022-08-14T00:45:25.214Z,2.40
2022-08-14T00:47:54.373Z,2.60
2022-08-14T00:50:25.933Z,2.60
2022-08-14T00:53:00.251Z,2.80
2022-08-14T00:55:31.165Z,2.60
2022-08-14T00:58:32.469Z,3.20
2022-08-14T01:01:05.441Z,2.60
2022-08-14T01:03:38.314Z,3.10
2022-08-14T01:06:08.929Z,2.60
2022-08-14T01:08:51.135Z,3.00
2022-08-14T01:11:36.000Z,2.80
2022-08-14T01:14:25.453Z,2.70
2022-08-14T01:16:55.749Z,2.60
2022-08-14T01:19:43.905Z,2.50
2022-08-14T01:22:18.995Z,3.30
2022-08-14T01:24:48.537Z,2.80
2022-08-14T01:27:24.397Z,2.90
2022-08-14T01:30:03.265Z,2.80
2022-08-14T01:32:35.338Z,3.60
2022-08-14T01:35:18.770Z,3.00
2022-08-14T01:37:58.068Z,2.90
2022-08-14T01:40:36.658Z,2.70
2022-08-14T01:43:14.545Z,3.10
2022-08-14T01:46:05.932Z,3.00
2022-08-14T01:48:37.234Z,2.90
2022-08-14T01:51:18.856Z,3.40
2022-08-14T01:56:40.181Z,2.80
2022-08-14T01:59:10.246Z,3.10
2022-08-14T02:01:58.088Z,2.90
2022-08-14T02:04:55.800Z,3.10
2022-08-14T02:07:34.594Z,2.50
2022-08-14T02:10:16.057Z,2.80
2022-08-14T02:12:48.902Z,2.90
2022-08-14T02:15:26.487Z,2.90
2022-08-14T02:17:55.703Z,2.80
2022-08-14T02:20:25.018Z,2.80
2022-08-14T02:22:54.855Z,2.70
2022-08-14T02:25:24.320Z,3.20
2022-08-14T02:28:25.300Z,2.60
2022-08-14T02:30:52.954Z,3.00
2022-08-14T02:33:22.777Z,3.20
2022-08-14T02:36:04.975Z,2.90
2022-08-14T02:38:44.479Z,2.80
2022-08-14T02:41:14.008Z,2.50
2022-08-14T02:43:45.980Z,3.60
2022-08-14T02:46:20.306Z,2.60
2022-08-14T02:49:02.692Z,2.50
2022-08-14T02:51:36.632Z,2.60
2022-08-14T02:54:10.094Z,2.90
2022-08-14T02:57:15.833Z,2.80
2022-08-14T02:59:33.606Z,2.90
2022-08-14T03:02:04.391Z,3.50
2022-08-14T03:04:33.697Z,3.20
2022-08-14T03:07:07.206Z,3.40
2022-08-14T03:10:24.770Z,3.20
2022-08-14T03:12:31.582Z,2.90
2022-08-14T03:15:14.411Z,3.20
2022-08-14T03:17:58.247Z,3.00
2022-08-14T03:20:36.134Z,2.80
2022-08-14T03:23:37.914Z,3.10
2022-08-14T03:26:18.185Z,2.90
2022-08-14T03:29:01.136Z,3.20
2022-08-14T03:34:00.557Z,3.20
2022-08-14T03:37:28.388Z,3.30
2022-08-14T03:39:24.145Z,3.20
2022-08-14T03:41:59.935Z,2.90
2022-08-14T03:45:19.341Z,3.30
2022-08-14T03:47:21.394Z,3.10
2022-08-14T03:49:50.426Z,2.90
2022-08-14T03:52:38.939Z,3.00
2022-08-14T03:55:12.643Z,3.60
2022-08-14T03:57:42.702Z,2.80
2022-08-14T04:00:40.545Z,3.10
2022-08-14T04:03:10.386Z,3.10
2022-08-14T04:05:43.454Z,3.20
2022-08-14T04:08:29.829Z,3.20
2022-08-14T04:11:07.688Z,3.70
2022-08-14T04:14:23.615Z,3.20
2022-08-14T04:17:09.963Z,3.30
2022-08-14T04:19:48.073Z,3.00
2022-08-14T04:22:17.193Z,3.30
2022-08-14T04:24:51.649Z,3.40
2022-08-14T04:27:21.999Z,3.40
2022-08-14T04:29:51.708Z,3.60
2022-08-14T04:32:58.357Z,3.30
2022-08-14T04:35:12.433Z,4.40
2022-08-14T04:38:07.696Z,4.00
2022-08-14T04:41:13.082Z,3.90
2022-08-14T04:43:44.817Z,3.50
2022-08-14T04:46:56.696Z,4.50
2022-08-14T04:49:07.897Z,4.50
2022-08-14T04:51:55.469Z,4.50
2022-08-14T04:54:28.732Z,4.30
2022-08-14T04:56:58.012Z,5.50
2022-08-14T04:59:30.078Z,6.10
2022-08-14T05:04:33.903Z,3.90
2022-08-14T05:07:09.242Z,4.80
2022-08-14T05:09:38.338Z,5.00
2022-08-14T05:13:10.567Z,3.90
2022-08-14T05:15:08.858Z,4.10
2022-08-14T05:17:44.520Z,4.50
2022-08-14T05:21:56.330Z,4.00
2022-08-14T05:23:18.875Z,4.40
2022-08-14T05:25:50.115Z,3.50
2022-08-14T05:28:25.369Z,3.70
2022-08-14T05:31:02.130Z,3.70
2022-08-14T05:33:33.326Z,3.60
2022-08-14T05:36:16.660Z,3.50
2022-08-14T05:38:47.781Z,5.00
2022-08-14T05:41:19.275Z,3.60
2022-08-14T05:43:48.760Z,3.50
2022-08-14T05:46:23.119Z,3.30
2022-08-14T05:48:54.957Z,3.70
2022-08-14T05:51:27.647Z,3.40
2022-08-14T05:54:11.479Z,3.70
2022-08-14T05:56:42.508Z,3.70
2022-08-14T05:59:12.472Z,3.20
2022-08-14T06:01:44.349Z,3.30
2022-08-14T06:04:15.745Z,2.90
2022-08-14T06:06:44.870Z,3.40
2022-08-14T06:09:13.725Z,2.70
2022-08-14T06:11:42.362Z,3.40
2022-08-14T06:14:20.567Z,3.10
2022-08-14T06:16:53.080Z,3.00
2022-08-14T06:19:23.138Z,2.90
2022-08-14T06:21:58.276Z,3.20
2022-08-14T06:24:30.588Z,2.70
2022-08-14T06:27:06.155Z,2.70
2022-08-14T06:29:39.413Z,3.10
2022-08-14T06:32:37.474Z,2.70
2022-08-14T06:35:11.363Z,2.80
2022-08-14T06:38:04.462Z,3.00
2022-08-14T06:40:40.199Z,2.80
2022-08-14T06:43:15.693Z,3.00
2022-08-14T06:45:50.217Z,2.80
2022-08-14T06:48:25.441Z,2.70
2022-08-14T06:50:57.975Z,3.20
2022-08-14T06:53:32.903Z,2.70
2022-08-14T06:56:05.067Z,2.70
2022-08-14T06:58:34.032Z,3.00
2022-08-14T07:01:27.553Z,2.80
2022-08-14T07:04:23.197Z,3.00
2022-08-14T07:06:59.125Z,2.90
2022-08-14T07:09:43.759Z,2.70
2022-08-14T07:12:54.681Z,2.90
2022-08-14T07:15:07.621Z,3.00
2022-08-14T07:17:44.942Z,2.70
2022-08-14T07:20:18.868Z,3.30
2022-08-14T07:23:08.536Z,2.90
2022-08-14T07:25:40.351Z,3.10
2022-08-14T07:28:20.228Z,2.70
2022-08-14T07:30:52.133Z,2.80
2022-08-14T07:33:29.325Z,2.60
2022-08-14T07:36:02.372Z,2.80
2022-08-14T07:38:38.020Z,3.00
2022-08-14T07:41:14.812Z,3.00
2022-08-14T07:43:55.483Z,3.00
2022-08-14T07:46:28.117Z,2.90
2022-08-14T07:48:58.498Z,2.70
2022-08-14T07:51:34.170Z,3.10
2022-08-14T07:54:11.337Z,3.00
2022-08-14T07:56:47.582Z,2.80
2022-08-14T07:59:18.825Z,2.70
2022-08-14T08:01:51.703Z,2.80
2022-08-14T08:04:26.947Z,2.80
2022-08-14T08:06:56.334Z,2.80
2022-08-14T08:09:31.805Z,2.50
2022-08-14T08:12:04.886Z,2.90
2022-08-14T08:14:56.166Z,2.50
2022-08-14T08:17:25.252Z,2.50
2022-08-14T08:19:53.629Z,2.80
2022-08-14T08:22:27.247Z,3.00
2022-08-14T08:24:59.530Z,3.10
2022-08-14T08:27:29.750Z,3.20
2022-08-14T08:30:21.594Z,2.30
2022-08-14T08:32:52.605Z,2.70
2022-08-14T08:35:25.910Z,2.60
2022-08-14T08:39:16.878Z,2.30
2022-08-14T08:41:21.451Z,2.10
2022-08-14T08:43:51.175Z,2.40
2022-08-14T08:46:24.069Z,2.90
2022-08-14T08:51:33.587Z,2.40
2022-08-14T09:04:53.451Z,2.20
2022-08-14T09:07:31.387Z,2.10
2022-08-14T09:10:00.869Z,2.60
2022-08-14T09:12:32.183Z,2.70
2022-08-14T09:17:33.403Z,2.50
2022-08-14T09:20:04.290Z,2.50
2022-08-14T09:22:36.168Z,2.30
2022-08-14T09:25:07.627Z,2.40
2022-08-14T09:27:39.655Z,2.30
2022-08-14T09:30:30.761Z,2.50
2022-08-14T09:33:10.836Z,2.70
2022-08-14T09:35:58.037Z,2.20
2022-08-14T09:38:37.301Z,2.80
2022-08-14T09:42:20.152Z,2.50
2022-08-14T09:44:46.381Z,2.10
2022-08-14T09:47:19.243Z,2.10
2022-08-14T09:49:52.265Z,2.30
2022-08-14T09:52:33.981Z,2.40
2022-08-14T09:55:05.121Z,2.50
2022-08-14T09:57:35.831Z,2.70
2022-08-14T10:00:30.256Z,2.60
2022-08-14T10:03:05.056Z,2.60
2022-08-14T10:05:39.214Z,2.80
2022-08-14T10:08:25.499Z,2.50
2022-08-14T10:11:02.397Z,2.40
2022-08-14T10:13:43.211Z,2.50
2022-08-14T10:16:27.497Z,2.30
2022-08-14T10:33:37.270Z,2.00
2022-08-14T10:36:06.290Z,2.20
2022-08-14T10:38:44.091Z,2.10
2022-08-14T10:41:20.288Z,2.00
2022-08-14T10:44:21.631Z,2.40
2022-08-14T10:47:39.596Z,1.90
2022-08-14T10:50:00.426Z,2.20
2022-08-14T10:52:35.918Z,2.00
2022-08-14T10:55:08.567Z,1.80
2022-08-14T10:57:51.570Z,2.20
2022-08-14T11:00:30.072Z,1.80
2022-08-14T11:03:11.121Z,1.80
2022-08-14T11:05:46.225Z,2.10
2022-08-14T11:08:17.847Z,1.90
2022-08-14T11:10:55.876Z,1.80
2022-08-14T11:13:28.724Z,1.70
2022-08-14T11:16:01.323Z,2.00
2022-08-14T11:18:39.879Z,1.80
2022-08-14T11:21:10.595Z,2.50
2022-08-14T11:23:43.639Z,2.40
2022-08-14T11:26:20.932Z,2.00
2022-08-14T11:28:50.542Z,2.20
2022-08-14T11:31:24.002Z,2.20
2022-08-14T11:33:58.133Z,2.00
2022-08-14T11:36:57.163Z,1.80
2022-08-14T11:39:34.482Z,1.40
2022-08-14T11:42:56.921Z,1.60
2022-08-14T11:45:10.947Z,1.90
2022-08-14T11:48:10.597Z,1.90
2022-08-14T11:50:37.749Z,2.00
2022-08-14T11:53:33.373Z,2.20
2022-08-14T11:56:05.451Z,1.70
2022-08-14T11:58:37.088Z,2.20
2022-08-14T12:01:10.023Z,2.00
2022-08-14T12:03:57.067Z,1.90
2022-08-14T12:06:29.165Z,2.20
2022-08-14T12:09:15.168Z,1.90
2022-08-14T12:11:47.446Z,2.00
2022-08-14T12:14:34.931Z,1.90
2022-08-14T12:17:11.983Z,2.20
2022-08-14T12:19:56.867Z,2.50
2022-08-14T12:22:43.718Z,2.10
2022-08-14T12:25:15.069Z,2.10
2022-08-14T12:30:43.874Z,1.90
2022-08-14T12:33:26.907Z,1.80
2022-08-14T12:36:08.081Z,2.30
2022-08-14T12:38:38.772Z,2.00
2022-08-14T12:41:21.733Z,2.20
2022-08-14T12:43:55.704Z,1.80
2022-08-14T12:46:27.569Z,1.70
2022-08-14T12:49:02.564Z,1.90
2022-08-14T12:51:33.802Z,1.70
2022-08-14T12:54:26.474Z,1.70
2022-08-14T12:57:19.528Z,1.90
2022-08-14T12:59:50.683Z,1.90
2022-08-14T13:02:27.169Z,1.90
2022-08-14T13:04:57.099Z,2.00
2022-08-14T13:07:32.471Z,1.90
2022-08-14T13:10:45.883Z,2.10
2022-08-14T13:15:46.458Z,1.70
2022-08-14T13:18:17.252Z,2.10
2022-08-14T13:20:49.478Z,2.00
2022-08-14T13:23:32.101Z,2.20
2022-08-14T13:26:01.375Z,2.30
2022-08-14T13:28:39.696Z,1.90
2022-08-14T13:31:15.883Z,2.30
2022-08-14T13:33:46.079Z,2.20
2022-08-14T13:36:24.013Z,2.30
2022-08-14T13:39:03.922Z,2.50
2022-08-14T13:41:36.395Z,2.50
2022-08-14T13:44:07.977Z,2.50
2022-08-14T13:46:45.930Z,2.40
2022-08-14T13:49:16.891Z,2.40
2022-08-14T13:51:53.292Z,2.60
2022-08-14T13:54:25.224Z,2.10
2022-08-14T13:56:55.378Z,2.20
2022-08-14T13:59:38.124Z,1.90
2022-08-14T14:02:08.654Z,2.30
2022-08-14T14:04:49.538Z,2.50
2022-08-14T14:07:23.551Z,2.40
2022-08-14T14:09:56.414Z,2.30
2022-08-14T14:12:36.527Z,2.20
2022-08-14T14:15:16.868Z,2.70
2022-08-14T14:17:48.023Z,2.50
2022-08-14T14:20:34.183Z,2.40
2022-08-14T14:23:12.043Z,2.10
2022-08-14T14:25:49.192Z,2.30
2022-08-14T14:28:26.402Z,2.20
2022-08-14T14:31:06.693Z,2.60
2022-08-14T14:33:51.624Z,2.50
2022-08-14T14:36:25.226Z,2.10
2022-08-14T14:38:57.682Z,2.30
2022-08-14T14:41:37.600Z,2.40
2022-08-14T14:44:11.338Z,2.40
2022-08-14T14:46:50.260Z,2.50
2022-08-14T14:49:32.037Z,2.70
2022-08-14T14:52:23.483Z,2.40
2022-08-14T14:54:58.549Z,2.70
2022-08-14T15:00:18.428Z,2.90
2022-08-14T15:02:51.581Z,2.70
2022-08-14T15:05:23.327Z,2.80
2022-08-14T15:07:57.136Z,2.80
2022-08-14T15:10:34.232Z,3.20
2022-08-14T15:13:07.180Z,3.30
2022-08-14T15:15:37.804Z,3.50
2022-08-14T15:18:36.950Z,3.60
2022-08-14T15:20:58.153Z,3.50
2022-08-14T15:23:44.440Z,4.20
2022-08-14T15:26:24.355Z,3.40
2022-08-14T15:29:06.408Z,3.70
2022-08-14T15:31:36.620Z,3.40
2022-08-14T15:34:45.697Z,3.80
2022-08-14T15:37:02.541Z,3.60
2022-08-14T15:39:35.678Z,4.10
2022-08-14T15:42:14.737Z,3.90
2022-08-14T15:44:58.400Z,4.00
2022-08-14T15:47:32.403Z,3.80
2022-08-14T15:50:08.684Z,4.00
2022-08-14T15:52:38.518Z,4.00
2022-08-14T15:55:14.818Z,4.00
2022-08-14T15:57:51.370Z,3.90
2022-08-14T16:00:52.675Z,4.70
2022-08-14T16:03:25.327Z,4.20
2022-08-14T16:06:15.712Z,4.80
2022-08-14T16:08:58.869Z,5.00
2022-08-14T16:11:32.717Z,5.20
2022-08-14T16:14:02.009Z,4.40
2022-08-14T16:16:51.724Z,5.10
2022-08-14T16:19:26.734Z,4.20
2022-08-14T16:22:01.324Z,4.70
2022-08-14T16:24:59.790Z,4.60
2022-08-14T16:27:37.273Z,4.10
2022-08-14T16:30:25.261Z,5.00
2022-08-14T16:32:59.415Z,4.80
2022-08-14T16:35:42.430Z,4.60
2022-08-14T16:38:45.583Z,4.80
2022-08-14T16:41:17.441Z,5.10
2022-08-14T16:43:46.987Z,4.30
2022-08-14T16:46:22.485Z,4.80
2022-08-14T16:48:57.593Z,5.50
2022-08-14T16:51:29.601Z,5.20
2022-08-14T16:54:00.835Z,5.20
2022-08-14T16:56:36.234Z,5.20
2022-08-14T16:59:30.430Z,4.80
2022-08-14T17:02:13.712Z,4.80
2022-08-14T17:04:49.268Z,5.70
2022-08-14T17:07:17.833Z,5.20
